Ellaville, Georgia
Current Conditions -  °F | °C
As of 4:55 AM on Tuesday 27 Jan 2015 (Local Time) from KACJ Reporting Station
Clear Clear  
Wind Chill: 29°   Ceiling: Unl
Heat Index: 34°   Visibility: 10mi
Dew Point: 32°   Wind: 6mph
Humidity: 93%   Direction: 250°WSW
Pressure: 29.95"   Gusts: NA
Location:  32.24°N, 84.31°W
Report Text: KACJ 270955Z AUTO 25005KT 10SM CLR 01/00 A2995 RMK AO2
Loading
Personal Weather Stations






























Interactive Weather Map New forecast layout! Learn more

10-Day Weather Forecast

Advertisements
Track Severe Weather on mobile